Time;durP1;ratioP1;P1;durP2;ratioP2;P2;SDS_P1;SDS_P2;PMS_P1;PMS_P2;Temp;Humidity;BMP_temperature;BMP_pressure;BME280_temperature;BME280_humidity;BME280_pressure;Samples;Min_cycle;Max_cycle;Signal;HPM_P1;HPM_P2
2022/03/29 00:01:52;;;;;;;22.00;10.40;;;282.20;1254.40;;;;;;5006308;28;20478;-76
2022/03/29 00:04:18;;;;;;;30.63;11.02;;;282.20;1254.40;;;;;;5004580;28;20109;-77
2022/03/29 00:06:44;;;;;;;;;;;282.30;1254.40;;;;;;5004931;28;20466;-77
2022/03/29 00:09:10;;;;;;;27.75;10.57;;;282.30;1254.40;;;;;;5006065;28;19913;-77
2022/03/29 00:11:35;;;;;;;;;;;282.20;1254.40;;;;;;5004502;28;20470;-77
2022/03/29 00:14:05;;;;;;;32.55;11.90;;;282.00;1280.00;;;;;;5004852;28;20381;-76
2022/03/29 00:16:32;;;;;;;30.20;10.07;;;281.70;1280.00;;;;;;5015356;28;20466;-76
2022/03/29 00:18:58;;;;;;;18.98;10.70;;;281.60;1254.40;;;;;;5028266;28;20026;-76
2022/03/29 00:21:24;;;;;;;26.90;11.45;;;281.70;1254.40;;;;;;5004448;28;20014;-77
2022/03/29 00:23:50;;;;;;;;;;;281.70;1254.40;;;;;;5006002;28;20027;-77
2022/03/29 00:26:16;;;;;;;24.35;11.18;;;281.80;1254.40;;;;;;5003683;28;19914;-76
2022/03/29 00:28:42;;;;;;;25.75;10.70;;;281.80;1254.40;;;;;;5005975;28;20098;-77
2022/03/29 00:31:09;;;;;;;27.60;12.07;;;281.90;1280.00;;;;;;5006334;28;20032;-77
2022/03/29 00:33:34;;;;;;;32.53;11.75;;;281.90;1280.00;;;;;;5003424;28;20302;-77
2022/03/29 00:36:00;;;;;;;21.33;10.35;;;281.80;1254.40;;;;;;5004722;28;20467;-79
2022/03/29 00:38:26;;;;;;;;;;;281.80;1280.00;;;;;;5006338;28;20526;-76
2022/03/29 00:40:53;;;;;;;28.25;11.48;;;281.80;1280.00;;;;;;5003661;28;19914;-77
2022/03/29 00:43:18;;;;;;;25.35;13.45;;;281.90;1280.00;;;;;;5005288;28;20018;-77
2022/03/29 00:45:45;;;;;;;23.48;11.30;;;281.80;1305.60;;;;;;5002830;28;20397;-77
2022/03/29 00:48:13;;;;;;;25.50;11.50;;;281.80;1305.60;;;;;;5005247;28;20092;-77
2022/03/29 00:50:40;;;;;;;24.73;10.75;;;281.70;1305.60;;;;;;5019661;28;20050;-76
2022/03/29 00:53:06;;;;;;;22.35;12.38;;;281.70;1305.60;;;;;;5003718;28;20070;-77
2022/03/29 00:55:32;;;;;;;26.08;11.80;;;256.90;1280.00;;;;;;5003817;28;20064;-76
2022/03/29 00:58:02;;;;;;;25.88;11.65;;;256.90;1280.00;;;;;;5019580;28;20018;-78
2022/03/29 01:00:32;;;;;;;27.10;13.05;;;281.60;1305.60;;;;;;5003490;28;20173;-79
2022/03/29 01:02:59;;;;;;;25.20;12.75;;;281.60;1305.60;;;;;;5027510;28;20037;-77
2022/03/29 01:05:26;;;;;;;25.60;12.40;;;256.80;1280.00;;;;;;5029561;28;20022;-77
2022/03/29 01:07:54;;;;;;;27.95;12.43;;;256.70;1305.60;;;;;;5008399;28;20026;-76
2022/03/29 01:10:20;;;;;;;33.60;12.82;;;256.60;1305.60;;;;;;5003181;28;20447;-79
2022/03/29 01:12:46;;;;;;;24.55;11.90;;;256.40;1305.60;;;;;;5005990;28;20113;-77
2022/03/29 01:15:13;;;;;;;30.83;13.35;;;256.60;1331.20;;;;;;5007077;28;20869;-80
2022/03/29 01:17:42;;;;;;;33.80;16.83;;;256.70;1331.20;;;;;;5004239;28;20037;-77
2022/03/29 01:20:28;;;;;;;39.08;18.00;;;256.60;1356.80;;;;;;5004812;28;20101;-76
2022/03/29 01:22:56;;;;;;;36.55;15.70;;;256.80;1356.80;;;;;;5005747;28;20033;-78
2022/03/29 01:25:26;;;;;;;40.40;18.58;;;281.60;1382.40;;;;;;5011361;28;20030;-81
2022/03/29 01:27:53;;;;;;;35.58;15.48;;;281.70;1356.80;;;;;;5029820;28;20109;-79
2022/03/29 01:30:21;;;;;;;33.33;17.02;;;256.90;1356.80;;;;;;5001845;28;20022;-79
2022/03/29 01:32:50;;;;;;;37.58;17.00;;;256.80;1356.80;;;;;;5001668;28;20104;-79
2022/03/29 01:35:17;;;;;;;40.80;15.38;;;256.80;1382.40;;;;;;5005652;28;20029;-76
2022/03/29 01:37:43;;;;;;;31.85;13.70;;;256.70;1382.40;;;;;;5002763;28;20022;-80
2022/03/29 01:40:12;;;;;;;31.10;14.27;;;256.70;1382.40;;;;;;5005286;28;20089;-76
2022/03/29 01:42:39;;;;;;;28.42;13.48;;;256.50;1382.40;;;;;;5003410;28;20482;-76
2022/03/29 01:45:05;;;;;;;29.38;13.57;;;256.60;1408.00;;;;;;5004631;28;20030;-76
2022/03/29 01:47:31;;;;;;;37.33;13.43;;;256.70;1408.00;;;;;;5003923;28;20037;-76
2022/03/29 01:49:57;;;;;;;27.30;13.50;;;256.70;1408.00;;;;;;5004138;28;20021;-77
2022/03/29 01:52:22;;;;;;;36.97;13.65;;;256.80;1408.00;;;;;;5003245;28;20026;-77
2022/03/29 01:54:48;;;;;;;;;;;256.70;1408.00;;;;;;5004319;28;20053;-78
2022/03/29 01:57:14;;;;;;;36.13;13.82;;;256.60;1408.00;;;;;;5004022;28;20373;-80
2022/03/29 02:02:24;;;;;;;37.42;13.55;;;256.70;1408.00;;;;;;5003679;28;20389;-79
2022/03/29 02:04:50;;;;;;;31.73;14.85;;;256.70;1433.60;;;;;;5003759;28;20030;-76
2022/03/29 02:07:16;;;;;;;;;;;256.50;1433.60;;;;;;5001891;28;20061;-76
2022/03/29 02:09:43;;;;;;;31.73;14.55;;;256.50;1459.20;;;;;;5003502;28;19905;-76
2022/03/29 02:12:12;;;;;;;35.13;16.48;;;256.50;1459.20;;;;;;5002842;28;20082;-76
2022/03/29 02:14:38;;;;;;;32.38;15.85;;;256.50;1459.20;;;;;;5001677;28;20073;-76
2022/03/29 02:17:05;;;;;;;40.40;18.92;;;256.60;1459.20;;;;;;5003839;28;20033;-77
2022/03/29 02:19:31;;;;;;;32.42;16.23;;;256.60;1459.20;;;;;;5002874;28;20042;-76
2022/03/29 02:21:57;;;;;;;47.85;19.50;;;256.60;1484.80;;;;;;5001457;28;20029;-76
2022/03/29 02:24:23;;;;;;;38.40;17.90;;;256.60;1484.80;;;;;;5004382;28;20474;-76
2022/03/29 02:26:49;;;;;;;37.38;19.05;;;256.50;1484.80;;;;;;5001086;28;20030;-77
2022/03/29 02:29:15;;;;;;;;;;;256.50;1510.40;;;;;;5003693;28;20482;-76
2022/03/29 02:31:40;;;;;;;39.30;18.80;;;256.60;1484.80;;;;;;5001576;28;19909;-80
2022/03/29 02:34:06;;;;;;;;;;;256.50;1510.40;;;;;;5004456;28;20466;-77
2022/03/29 02:36:32;;;;;;;35.10;18.05;;;256.50;1510.40;;;;;;5002605;28;19906;-76
2022/03/29 02:38:57;;;;;;;;;;;256.30;1510.40;;;;;;5001613;28;20077;-76
2022/03/29 02:41:23;;;;;;;47.88;19.50;;;256.30;1536.00;;;;;;5003290;28;19905;-77
2022/03/29 02:43:48;;;;;;;;;;;256.20;1536.00;;;;;;5002543;28;20022;-76
2022/03/29 02:46:14;;;;;;;43.78;19.60;;;256.20;1536.00;;;;;;5001443;28;19912;-75
2022/03/29 02:48:40;;;;;;;;;;;256.10;1536.00;;;;;;5003420;28;20454;-76
2022/03/29 02:51:05;;;;;;;36.28;18.75;;;256.20;1536.00;;;;;;5002209;28;19913;-77
2022/03/29 02:53:31;;;;;;;;;;;256.20;1536.00;;;;;;5003067;28;20042;-76
2022/03/29 02:55:57;;;;;;;41.85;18.83;;;256.30;1536.00;;;;;;5003218;28;19909;-76
2022/03/29 02:58:22;;;;;;;;;;;256.20;1536.00;;;;;;5002644;28;20154;-76
2022/03/29 03:00:48;;;;;;;32.42;18.80;;;256.00;1536.00;;;;;;5003590;28;19905;-76
2022/03/29 03:03:14;;;;;;;;;;;231.30;1536.00;;;;;;5003098;28;20022;-77
2022/03/29 03:05:40;;;;;;;51.88;19.55;;;231.20;1561.60;;;;;;5002252;28;20387;-76
2022/03/29 03:08:05;;;;;;;;;;;231.20;1561.60;;;;;;5003337;28;20026;-77
2022/03/29 03:10:31;;;;;;;43.40;20.77;;;231.20;1561.60;;;;;;5003086;28;19940;-77
2022/03/29 03:12:57;;;;;;;;;;;231.30;1561.60;;;;;;5000902;28;20034;-76
2022/03/29 03:15:24;;;;;;;63.95;22.85;;;231.20;1561.60;;;;;;5000894;28;19933;-77
2022/03/29 03:17:54;;;;;;;50.95;22.10;;;231.20;1587.20;;;;;;5002317;28;20505;-76
2022/03/29 03:20:21;;;;;;;39.60;20.80;;;256.00;1587.20;;;;;;5004154;28;20040;-76
2022/03/29 03:22:48;;;;;;;47.42;21.58;;;231.20;1587.20;;;;;;4999918;28;20069;-77
2022/03/29 03:25:13;;;;;;;49.30;21.63;;;256.00;1587.20;;;;;;5001857;28;20085;-76
2022/03/29 03:27:40;;;;;;;46.08;22.23;;;256.20;1561.60;;;;;;5001395;28;20429;-77
2022/03/29 03:30:10;;;;;;;53.00;24.27;;;256.10;1561.60;;;;;;5004945;28;20027;-77
2022/03/29 03:32:36;;;;;;;45.42;23.77;;;256.00;1587.20;;;;;;5006460;28;20029;-76
2022/03/29 03:35:02;;;;;;;50.33;23.75;;;256.20;1587.20;;;;;;5009325;28;20026;-77
2022/03/29 03:37:27;;;;;;;;;;;256.20;1587.20;;;;;;5008606;28;20467;-77
2022/03/29 03:39:53;;;;;;;54.30;25.42;;;256.10;1612.80;;;;;;5007218;28;19906;-76
2022/03/29 03:42:19;;;;;;;;;;;256.00;1612.80;;;;;;5007618;28;20088;-79
2022/03/29 03:44:44;;;;;;;57.85;25.02;;;231.30;1638.40;;;;;;5004531;28;19916;-76
2022/03/29 03:47:10;;;;;;;;;;;231.30;1664.00;;;;;;5007762;28;20038;-80
2022/03/29 03:49:38;;;;;;;57.08;26.02;;;256.00;1664.00;;;;;;5008490;28;19913;-75
2022/03/29 03:52:05;;;;;;;51.88;27.05;;;256.10;1638.40;;;;;;5006670;28;20589;-76
2022/03/29 03:54:35;;;;;;;56.28;26.20;;;256.00;1664.00;;;;;;5004856;28;20145;-77
2022/03/29 03:57:01;;;;;;;60.80;26.73;;;256.10;1664.00;;;;;;5007026;28;20506;-77
2022/03/29 03:59:27;;;;;;;;;;;256.50;1638.40;;;;;;5005246;28;20026;-78
2022/03/29 04:01:52;;;;;;;55.58;27.30;;;256.50;1638.40;;;;;;5004344;28;19905;-77
2022/03/29 04:04:18;;;;;;;;;;;256.80;1612.80;;;;;;5006295;28;20015;-77
2022/03/29 04:06:44;;;;;;;49.75;24.98;;;256.90;1612.80;;;;;;5006411;28;20367;-79
2022/03/29 04:09:10;;;;;;;;;;;256.80;1612.80;;;;;;5006202;28;20074;-78
2022/03/29 04:11:36;;;;;;;55.10;27.65;;;256.50;1638.40;;;;;;5003553;28;19905;-76
2022/03/29 04:14:01;;;;;;;;;;;256.60;1638.40;;;;;;5006695;28;20558;-77
2022/03/29 04:16:27;;;;;;;57.60;28.05;;;256.80;1612.80;;;;;;5006338;28;19909;-78
2022/03/29 04:18:53;;;;;;;;;;;256.90;1612.80;;;;;;5005159;28;20022;-76
2022/03/29 04:21:18;;;;;;;62.88;27.83;;;256.90;1612.80;;;;;;5003941;28;19906;-77
2022/03/29 04:23:44;;;;;;;51.72;27.30;;;256.90;1587.20;;;;;;5011773;28;20100;-79
2022/03/29 04:26:10;;;;;;;;;;;256.90;1612.80;;;;;;5005720;28;20113;-77
2022/03/29 04:28:36;;;;;;;53.90;25.10;;;256.70;1638.40;;;;;;5004887;28;19944;-76
2022/03/29 04:31:02;;;;;;;;;;;256.60;1664.00;;;;;;5004322;28;20442;-77
2022/03/29 04:33:29;;;;;;;52.85;26.88;;;256.60;1689.60;;;;;;5006454;28;19968;-76
2022/03/29 04:35:55;;;;;;;52.38;26.10;;;256.60;1689.60;;;;;;5009012;28;20096;-79
2022/03/29 04:38:23;;;;;;;109.38;54.28;;;256.70;1689.60;;;;;;5025147;28;20379;-76
2022/03/29 04:40:49;;;;;;;142.77;67.10;;;256.60;1689.60;;;;;;5002509;28;20026;-76
2022/03/29 04:43:15;;;;;;;83.47;41.45;;;256.70;1689.60;;;;;;5006127;28;20024;-77
2022/03/29 04:45:41;;;;;;;;;;;256.60;1715.20;;;;;;5004239;28;20032;-76
2022/03/29 04:48:07;;;;;;;66.57;29.65;;;256.70;1715.20;;;;;;5004228;28;19906;-76
2022/03/29 04:50:32;;;;;;;;;;;256.80;1689.60;;;;;;5005012;28;20109;-77
2022/03/29 04:52:58;;;;;;;57.17;28.23;;;256.80;1689.60;;;;;;5003962;28;20008;-77
2022/03/29 04:55:24;;;;;;;;;;;256.80;1689.60;;;;;;5003408;28;20047;-77
2022/03/29 04:57:50;;;;;;;66.22;28.90;;;256.80;1689.60;;;;;;5004846;28;19906;-80
2022/03/29 05:00:22;;;;;;;65.63;29.40;;;256.80;1689.60;;;;;;5004104;28;20027;-76
2022/03/29 05:02:49;;;;;;;58.90;29.88;;;256.80;1715.20;;;;;;5002844;28;20101;-76
2022/03/29 05:05:15;;;;;;;49.08;27.50;;;256.90;1715.20;;;;;;5004516;28;20034;-76
2022/03/29 05:07:42;;;;;;;53.13;29.02;;;256.90;1740.80;;;;;;5004309;28;20018;-76
2022/03/29 05:10:09;;;;;;;55.50;28.92;;;256.90;1740.80;;;;;;5006396;28;20022;-76
2022/03/29 05:12:42;;;;;;;57.63;29.42;;;256.90;1715.20;;;;;;5003406;28;20018;-78
2022/03/29 05:15:09;;;;;;;62.70;30.17;;;256.90;1689.60;;;;;;5002753;28;20100;-76
2022/03/29 05:17:35;;;;;;;54.47;28.23;;;256.90;1689.60;;;;;;5004015;28;20020;-76
2022/03/29 05:20:06;;;;;;;55.28;30.05;;;281.60;1689.60;;;;;;5002126;28;20026;-76
2022/03/29 05:22:32;;;;;;;61.58;29.27;;;281.70;1689.60;;;;;;5002988;28;20057;-75
2022/03/29 05:24:58;;;;;;;54.13;28.40;;;281.60;1689.60;;;;;;5003270;28;20026;-75
2022/03/29 05:27:24;;;;;;;60.22;31.40;;;281.60;1689.60;;;;;;5005471;28;20506;-80
2022/03/29 05:29:49;;;;;;;73.00;34.55;;;281.70;1689.60;;;;;;5003646;28;20022;-77
2022/03/29 05:32:18;;;;;;;;;;;256.90;1664.00;;;;;;5002869;28;20447;-77
2022/03/29 05:34:45;;;;;;;58.25;32.30;;;281.70;1689.60;;;;;;5004113;28;20437;-78
2022/03/29 05:37:12;;;;;;;49.50;26.80;;;281.70;1689.60;;;;;;5004058;28;20022;-76
2022/03/29 05:39:39;;;;;;;39.53;23.52;;;281.80;1689.60;;;;;;5003491;28;20037;-76
2022/03/29 05:42:06;;;;;;;47.65;25.15;;;282.00;1664.00;;;;;;5002384;28;20025;-76
2022/03/29 05:44:32;;;;;;;36.60;22.02;;;282.00;1638.40;;;;;;5003599;28;20026;-76
2022/03/29 05:49:42;;;;;;;34.50;19.40;;;282.30;1612.80;;;;;;5003067;28;20095;-78
2022/03/29 05:52:08;;;;;;;39.75;20.63;;;282.50;1587.20;;;;;;5003986;28;20062;-77
2022/03/29 05:54:35;;;;;;;36.85;19.88;;;307.20;1612.80;;;;;;5002047;28;20128;-78
2022/03/29 05:57:01;;;;;;;34.33;19.27;;;307.30;1612.80;;;;;;5003001;28;20018;-80
2022/03/29 05:59:26;;;;;;;34.85;18.77;;;308.00;1587.20;;;;;;5004133;28;20022;-78
2022/03/29 06:01:53;;;;;;;29.50;18.05;;;307.60;1587.20;;;;;;5001999;28;20077;-78
2022/03/29 06:04:22;;;;;;;44.03;19.63;;;307.60;1587.20;;;;;;5004998;28;20026;-77
2022/03/29 06:06:49;;;;;;;42.22;20.10;;;307.70;1561.60;;;;;;5001468;28;20524;-75
2022/03/29 06:09:15;;;;;;;35.72;18.05;;;307.70;1561.60;;;;;;5001962;28;20023;-78
2022/03/29 06:11:41;;;;;;;31.55;16.58;;;307.90;1536.00;;;;;;5002781;28;20466;-79
2022/03/29 06:14:07;;;;;;;40.10;18.90;;;308.00;1536.00;;;;;;5003896;28;20120;-77
2022/03/29 06:16:33;;;;;;;31.20;17.75;;;308.10;1536.00;;;;;;5003657;28;20026;-78
2022/03/29 06:18:58;;;;;;;38.28;21.50;;;332.80;1561.60;;;;;;5002805;28;20386;-78
2022/03/29 06:21:24;;;;;;;33.45;18.02;;;332.80;1561.60;;;;;;4999555;28;20018;-78
2022/03/29 06:23:51;;;;;;;36.03;19.63;;;332.90;1561.60;;;;;;5006478;28;20025;-80
2022/03/29 06:26:18;;;;;;;28.95;15.40;;;333.00;1587.20;;;;;;5003308;28;20481;-83
2022/03/29 06:28:44;;;;;;;31.83;17.63;;;332.90;1587.20;;;;;;5004053;28;20068;-79
2022/03/29 06:31:09;;;;;;;34.03;17.80;;;333.00;1587.20;;;;;;5003899;28;20490;-80
2022/03/29 06:33:35;;;;;;;;;;;333.10;1587.20;;;;;;5002193;28;20414;-77
2022/03/29 06:36:02;;;;;;;26.83;15.70;;;333.20;1561.60;;;;;;5002420;28;19909;-79
2022/03/29 06:38:31;;;;;;;34.60;18.45;;;358.40;1587.20;;;;;;5000987;28;20030;-79
2022/03/29 06:40:58;;;;;;;30.30;18.30;;;333.40;1587.20;;;;;;5003049;28;20029;-77
2022/03/29 06:43:25;;;;;;;39.35;16.92;;;333.50;1587.20;;;;;;5002906;28;20027;-78
2022/03/29 06:45:51;;;;;;;32.92;18.13;;;333.60;1587.20;;;;;;4985017;28;20072;-78
2022/03/29 06:48:17;;;;;;;26.45;16.75;;;333.70;1587.20;;;;;;5004339;28;20421;-78
2022/03/29 06:50:44;;;;;;;30.95;16.77;;;358.40;1587.20;;;;;;5002777;28;20525;-78
2022/03/29 06:53:09;;;;;;;30.85;16.77;;;358.50;1587.20;;;;;;5000879;28;20034;-78
2022/03/29 06:55:35;;;;;;;43.00;18.95;;;358.50;1587.20;;;;;;5000450;28;20042;-79
2022/03/29 06:58:02;;;;;;;33.65;18.45;;;358.60;1587.20;;;;;;5002264;28;20050;-81
2022/03/29 07:00:28;;;;;;;37.85;18.58;;;358.50;1587.20;;;;;;5001591;28;20033;-78
2022/03/29 07:02:54;;;;;;;31.90;17.92;;;358.80;1587.20;;;;;;5001940;28;20019;-81
2022/03/29 07:05:20;;;;;;;29.02;17.92;;;359.00;1587.20;;;;;;5007872;28;20080;-79
2022/03/29 07:07:46;;;;;;;29.85;17.75;;;359.00;1587.20;;;;;;5006985;28;20026;-79
2022/03/29 07:12:59;;;;;;;28.52;18.75;;;359.20;1561.60;;;;;;5007541;28;20117;-79
2022/03/29 07:15:25;;;;;;;37.42;20.38;;;384.00;1561.60;;;;;;5004971;28;20088;-77
2022/03/29 07:17:51;;;;;;;37.00;19.88;;;384.10;1536.00;;;;;;5008305;28;20067;-77
2022/03/29 07:20:19;;;;;;;31.33;17.20;;;384.30;1536.00;;;;;;5006384;28;20018;-77
2022/03/29 07:22:48;;;;;;;33.28;18.55;;;384.40;1536.00;;;;;;5005486;28;20029;-76
2022/03/29 07:25:16;;;;;;;37.80;18.73;;;384.40;1510.40;;;;;;5007077;28;20033;-77
2022/03/29 07:27:42;;;;;;;35.88;18.80;;;384.60;1484.80;;;;;;5005782;28;20117;-78
2022/03/29 07:30:10;;;;;;;30.48;18.90;;;384.70;1484.80;;;;;;5007516;28;20422;-75
2022/03/29 07:32:47;;;;;;;35.05;18.42;;;384.80;1484.80;;;;;;5004523;28;20022;-80
2022/03/29 07:35:15;;;;;;;26.95;17.73;;;384.90;1459.20;;;;;;5004456;28;20518;-77
2022/03/29 07:37:41;;;;;;;32.28;18.67;;;409.60;1484.80;;;;;;5015293;28;20018;-77
2022/03/29 07:40:08;;;;;;;30.55;18.50;;;409.70;1484.80;;;;;;5004929;28;20492;-77
2022/03/29 07:42:35;;;;;;;27.30;19.30;;;409.90;1484.80;;;;;;5006443;28;20398;-76
2022/03/29 07:45:04;;;;;;;33.13;18.90;;;410.00;1484.80;;;;;;5005267;28;20022;-79
2022/03/29 07:47:31;;;;;;;31.63;19.45;;;410.10;1459.20;;;;;;5004783;28;20022;-79
2022/03/29 07:49:57;;;;;;;29.85;18.25;;;410.20;1459.20;;;;;;5006621;28;20018;-78
2022/03/29 07:52:22;;;;;;;32.30;19.52;;;410.30;1459.20;;;;;;5006348;28;20042;-77
2022/03/29 07:54:48;;;;;;;36.63;20.15;;;410.40;1433.60;;;;;;5005999;28;20375;-77
2022/03/29 07:57:14;;;;;;;32.67;19.40;;;410.50;1433.60;;;;;;5009053;28;20022;-76
2022/03/29 07:59:40;;;;;;;30.25;19.67;;;410.50;1433.60;;;;;;5031284;28;20028;-76
2022/03/29 08:02:07;;;;;;;32.20;21.23;;;435.30;1382.40;;;;;;5026083;28;20081;-75
2022/03/29 08:04:33;;;;;;;33.67;21.83;;;435.50;1356.80;;;;;;5004001;28;20048;-78
2022/03/29 08:07:00;;;;;;;33.40;20.98;;;435.70;1356.80;;;;;;5006178;28;20116;-77
2022/03/29 08:09:27;;;;;;;33.22;21.13;;;435.80;1331.20;;;;;;5004962;28;20033;-78
2022/03/29 08:11:53;;;;;;;41.72;23.55;;;435.90;1305.60;;;;;;5005482;28;20068;-79
2022/03/29 08:14:19;;;;;;;29.80;20.35;;;436.00;1305.60;;;;;;5003476;28;20398;-78
2022/03/29 08:16:46;;;;;;;35.33;20.92;;;460.80;1305.60;;;;;;5004651;28;20145;-78
2022/03/29 08:19:11;;;;;;;36.22;22.70;;;460.80;1280.00;;;;;;5006933;28;20026;-77
2022/03/29 08:21:55;;;;;;;31.38;22.08;;;460.80;1280.00;;;;;;5003758;28;20022;-80
2022/03/29 08:24:23;;;;;;;31.35;22.45;;;460.90;1254.40;;;;;;5004286;28;20096;-77
2022/03/29 08:26:54;;;;;;;38.05;24.65;;;461.00;1254.40;;;;;;5009179;28;20049;-77
2022/03/29 08:29:21;;;;;;;41.60;24.50;;;461.00;1254.40;;;;;;5009219;28;20541;-76
2022/03/29 08:31:49;;;;;;;39.05;23.85;;;461.10;1280.00;;;;;;5005646;28;20026;-78
2022/03/29 08:34:16;;;;;;;34.95;23.58;;;461.10;1280.00;;;;;;5005235;28;20030;-76
2022/03/29 08:36:43;;;;;;;40.10;24.30;;;461.10;1254.40;;;;;;5003798;28;20112;-78
2022/03/29 08:39:10;;;;;;;38.00;23.35;;;461.20;1254.40;;;;;;5005535;28;20065;-76
2022/03/29 08:41:50;;;;;;;38.28;24.25;;;461.30;1254.40;;;;;;5002962;28;20049;-78
2022/03/29 08:44:16;;;;;;;35.78;24.60;;;461.30;1254.40;;;;;;5004384;28;20091;-78
2022/03/29 08:46:42;;;;;;;34.63;23.20;;;461.40;1228.80;;;;;;5003264;28;20538;-77
2022/03/29 08:49:28;;;;;;;39.20;22.30;;;461.50;1228.80;;;;;;5046529;28;20413;-77
2022/03/29 08:51:54;;;;;;;35.13;22.10;;;461.50;1203.20;;;;;;5044939;28;20390;-76
2022/03/29 08:54:20;;;;;;;37.60;21.50;;;461.60;1203.20;;;;;;5042358;28;20116;-77
2022/03/29 08:56:46;;;;;;;36.38;21.38;;;461.70;1177.60;;;;;;5043776;28;20304;-77
2022/03/29 08:59:12;;;;;;;42.15;24.25;;;461.70;1177.60;;;;;;5041938;28;20036;-77
2022/03/29 09:01:38;;;;;;;35.35;22.38;;;486.60;1177.60;;;;;;5026002;28;20017;-76
2022/03/29 09:04:13;;;;;;;33.70;22.50;;;486.40;1152.00;;;;;;5043560;28;20164;-78
2022/03/29 09:06:50;;;;;;;34.38;22.20;;;486.40;1152.00;;;;;;5042254;28;20413;-77
2022/03/29 09:09:28;;;;;;;28.10;19.77;;;486.60;1152.00;;;;;;5040942;28;20033;-78
2022/03/29 09:11:58;;;;;;;30.55;18.45;;;486.70;1100.80;;;;;;5023985;28;20021;-78
2022/03/29 09:14:28;;;;;;;37.30;20.13;;;486.70;1100.80;;;;;;5026664;28;20037;-78
2022/03/29 09:16:53;;;;;;;34.60;21.95;;;486.80;1075.20;;;;;;5040736;28;20041;-79
2022/03/29 09:19:23;;;;;;;32.55;19.65;;;486.80;1100.80;;;;;;5041949;28;20067;-78
2022/03/29 09:21:49;;;;;;;35.47;22.10;;;487.10;1100.80;;;;;;5004370;28;20022;-77
2022/03/29 09:24:19;;;;;;;29.98;18.10;;;487.00;1075.20;;;;;;5002894;28;20026;-77
2022/03/29 09:26:48;;;;;;;30.48;19.23;;;487.10;1075.20;;;;;;5002756;28;20140;-77
2022/03/29 09:29:18;;;;;;;29.60;19.15;;;487.20;1049.60;;;;;;5001911;28;20364;-77
2022/03/29 09:31:45;;;;;;;29.92;18.73;;;487.20;1049.60;;;;;;5003696;28;20018;-78
2022/03/29 09:34:14;;;;;;;27.23;18.35;;;487.30;1024.00;;;;;;5002021;28;20078;-77
2022/03/29 09:36:43;;;;;;;37.17;20.55;;;512.00;1024.00;;;;;;5003426;28;20033;-77
2022/03/29 09:39:28;;;;;;;32.25;20.48;;;512.20;1024.00;;;;;;5003364;28;20027;-77
2022/03/29 09:41:58;;;;;;;33.45;17.92;;;512.30;1024.00;;;;;;5002077;28;20022;-78
2022/03/29 09:44:33;;;;;;;30.95;19.48;;;512.30;998.40;;;;;;5002656;28;20383;-77
2022/03/29 09:47:04;;;;;;;33.30;20.48;;;512.50;998.40;;;;;;5005516;28;20093;-77
2022/03/29 09:49:50;;;;;;;30.95;19.27;;;512.50;972.80;;;;;;5003055;28;20035;-78
2022/03/29 09:52:18;;;;;;;26.15;16.67;;;512.60;972.80;;;;;;5004857;28;20057;-77
2022/03/29 09:55:03;;;;;;;37.45;18.98;;;512.70;972.80;;;;;;5003746;28;20049;-77
2022/03/29 09:57:48;;;;;;;28.20;19.38;;;512.90;972.80;;;;;;5004292;28;20018;-78
2022/03/29 10:00:39;;;;;;;26.90;17.65;;;537.70;998.40;;;;;;5010522;28;20026;-80
2022/03/29 10:03:09;;;;;;;35.05;20.13;;;537.80;972.80;;;;;;5013576;28;20033;-78
2022/03/29 10:05:37;;;;;;;26.42;17.17;;;538.00;972.80;;;;;;5013251;28;20040;-78
2022/03/29 10:11:16;;;;;;;30.05;18.38;;;538.40;947.20;;;;;;4973542;28;20117;-77
2022/03/29 10:13:42;;;;;;;30.30;17.45;;;538.50;921.60;;;;;;4956960;28;20039;-77
2022/03/29 10:16:13;;;;;;;33.08;18.15;;;538.50;921.60;;;;;;4957087;28;20055;-78
2022/03/29 10:18:41;;;;;;;26.95;17.77;;;563.30;921.60;;;;;;4956547;28;20395;-77
2022/03/29 10:21:11;;;;;;;24.73;16.35;;;563.40;896.00;;;;;;4962411;28;20113;-77
2022/03/29 10:23:37;;;;;;;24.45;17.13;;;563.40;896.00;;;;;;4948660;28;20038;-77
2022/03/29 10:26:04;;;;;;;29.38;18.80;;;563.60;921.60;;;;;;4969913;28;20114;-77
2022/03/29 10:28:30;;;;;;;29.17;19.02;;;563.80;921.60;;;;;;4950065;28;20035;-77
2022/03/29 10:30:57;;;;;;;29.40;17.60;;;563.90;921.60;;;;;;4949364;28;20054;-77
2022/03/29 10:33:26;;;;;;;33.13;18.40;;;564.00;896.00;;;;;;4946113;28;20120;-77
2022/03/29 10:36:11;;;;;;;26.70;17.45;;;588.80;921.60;;;;;;4947610;28;20035;-77
2022/03/29 10:38:45;;;;;;;26.50;18.23;;;588.90;921.60;;;;;;4954939;28;20054;-77
2022/03/29 10:41:43;;;;;;;28.60;18.42;;;589.10;896.00;;;;;;4952631;28;20046;-77
2022/03/29 10:44:10;;;;;;;26.38;18.27;;;589.10;870.40;;;;;;4954864;28;20062;-77
2022/03/29 10:46:51;;;;;;;30.88;17.95;;;589.20;870.40;;;;;;4966969;28;20030;-76
2022/03/29 10:49:23;;;;;;;23.95;17.58;;;589.30;896.00;;;;;;5012373;28;20072;-77
2022/03/29 10:52:16;;;;;;;30.10;18.02;;;589.30;870.40;;;;;;5013618;28;20025;-79
2022/03/29 10:54:42;;;;;;;27.90;17.23;;;589.50;896.00;;;;;;5012227;28;20049;-78
2022/03/29 10:57:31;;;;;;;25.77;18.30;;;589.60;870.40;;;;;;5012588;28;20113;-75
2022/03/29 11:00:12;;;;;;;27.92;17.73;;;589.70;844.80;;;;;;4993715;28;20081;-76
2022/03/29 11:02:58;;;;;;;24.02;17.75;;;614.40;844.80;;;;;;4994071;28;20033;-76
2022/03/29 11:05:24;;;;;;;27.45;18.88;;;614.40;844.80;;;;;;4993709;28;20024;-74
2022/03/29 11:07:53;;;;;;;29.33;17.77;;;614.50;844.80;;;;;;4994839;28;20037;-75
2022/03/29 11:10:20;;;;;;;29.23;17.13;;;614.60;844.80;;;;;;5001694;28;20104;-75
2022/03/29 11:12:51;;;;;;;25.40;17.20;;;614.80;844.80;;;;;;5001950;28;20031;-74
2022/03/29 11:15:35;;;;;;;30.45;17.58;;;614.70;844.80;;;;;;5002012;28;20398;-77
2022/03/29 11:18:06;;;;;;;35.70;17.42;;;614.80;819.20;;;;;;4998901;28;20579;-75
2022/03/29 11:20:34;;;;;;;22.92;16.50;;;614.80;819.20;;;;;;4993790;28;20049;-82
2022/03/29 11:23:04;;;;;;;26.10;16.50;;;614.90;844.80;;;;;;4993641;28;20034;-74
2022/03/29 11:25:38;;;;;;;32.08;17.83;;;614.90;819.20;;;;;;4993719;28;20027;-74
2022/03/29 11:28:15;;;;;;;31.38;18.00;;;615.00;819.20;;;;;;4993615;28;20023;-75
2022/03/29 11:30:41;;;;;;;31.70;17.98;;;615.10;819.20;;;;;;4993445;28;20030;-82
2022/03/29 11:33:08;;;;;;;26.75;17.80;;;615.20;819.20;;;;;;4992596;28;20430;-82
2022/03/29 11:35:36;;;;;;;24.58;18.42;;;615.20;819.20;;;;;;4993691;28;20030;-74
2022/03/29 11:38:16;;;;;;;26.13;17.27;;;615.20;819.20;;;;;;4993620;28;20029;-74
2022/03/29 11:40:42;;;;;;;38.50;17.95;;;614.90;819.20;;;;;;5001914;28;20014;-76
2022/03/29 11:43:14;;;;;;;23.83;17.83;;;614.80;844.80;;;;;;5003039;28;20394;-75
2022/03/29 11:45:47;;;;;;;26.63;19.00;;;615.10;819.20;;;;;;5004000;28;20088;-76
2022/03/29 11:48:17;;;;;;;28.10;17.98;;;615.20;793.60;;;;;;5004481;28;20026;-74
2022/03/29 11:50:49;;;;;;;26.52;17.67;;;615.30;793.60;;;;;;5006338;28;20041;-74
2022/03/29 11:53:31;;;;;;;25.27;17.80;;;640.00;793.60;;;;;;5016130;28;20018;-76
2022/03/29 11:56:06;;;;;;;30.00;19.08;;;640.10;793.60;;;;;;5014693;28;20026;-78
2022/03/29 11:58:37;;;;;;;26.40;17.30;;;640.10;793.60;;;;;;5014049;28;20023;-75
2022/03/29 12:01:20;;;;;;;31.80;19.40;;;640.10;793.60;;;;;;5015665;28;20050;-75
2022/03/29 12:03:54;;;;;;;33.20;19.48;;;640.20;793.60;;;;;;5015928;28;20018;-75
2022/03/29 12:06:21;;;;;;;27.08;18.58;;;640.20;793.60;;;;;;5016317;28;20033;-75
2022/03/29 12:08:55;;;;;;;29.60;20.00;;;640.10;793.60;;;;;;5016545;28;20033;-75
2022/03/29 12:11:39;;;;;;;27.40;19.08;;;640.30;819.20;;;;;;5016499;28;20022;-80
2022/03/29 12:14:19;;;;;;;34.13;20.35;;;640.20;793.60;;;;;;5016494;28;20053;-75
2022/03/29 12:17:03;;;;;;;25.33;18.92;;;640.30;793.60;;;;;;5016259;28;20026;-75
2022/03/29 12:19:30;;;;;;;29.92;20.05;;;640.50;793.60;;;;;;5015354;28;20041;-83
2022/03/29 12:22:03;;;;;;;28.95;19.17;;;640.60;793.60;;;;;;5016144;28;20018;-75
2022/03/29 12:24:37;;;;;;;27.67;19.17;;;640.60;793.60;;;;;;5016084;28;20034;-75
2022/03/29 12:27:06;;;;;;;28.30;21.23;;;640.50;793.60;;;;;;5012505;28;20091;-75
2022/03/29 12:29:53;;;;;;;37.17;21.88;;;640.50;768.00;;;;;;5015688;28;20029;-75